Time;durP1;ratioP1;P1;durP2;ratioP2;P2;SDS_P1;SDS_P2;PMS_P1;PMS_P2;Temp;Humidity;BMP_temperature;BMP_pressure;BME280_temperature;BME280_humidity;BME280_pressure;Samples;Min_cycle;Max_cycle;Signal;HPM_P1;HPM_P2
2023/01/12 00:01:44;;;;;;;13.48;1.77;;;7.70;99.90;;;;;;5127280;28;20118;-83
2023/01/12 00:04:12;;;;;;;12.38;2.17;;;7.70;99.90;;;;;;5111073;28;20044;-83
2023/01/12 00:06:40;;;;;;;14.70;2.35;;;7.80;99.90;;;;;;5110624;28;20032;-81
2023/01/12 00:09:07;;;;;;;16.08;2.67;;;7.80;99.90;;;;;;5110732;28;20028;-82
2023/01/12 00:11:38;;;;;;;13.20;2.58;;;7.90;99.90;;;;;;5110524;28;20498;-82
2023/01/12 00:14:06;;;;;;;12.38;2.50;;;7.80;99.90;;;;;;5111166;28;20043;-82
2023/01/12 00:16:33;;;;;;;12.00;2.50;;;7.80;99.90;;;;;;5127804;28;20096;-82
2023/01/12 00:19:02;;;;;;;14.35;2.55;;;7.70;99.90;;;;;;5127449;28;20047;-82
2023/01/12 00:21:31;;;;;;;16.80;2.45;;;7.70;99.90;;;;;;5110596;28;20036;-83
2023/01/12 00:23:58;;;;;;;10.43;1.75;;;7.70;99.90;;;;;;5127426;28;20131;-82
2023/01/12 00:26:25;;;;;;;11.93;2.10;;;7.70;99.90;;;;;;5110515;28;20170;-83
2023/01/12 00:28:51;;;;;;;14.73;2.40;;;7.70;99.90;;;;;;5126572;28;20044;-83
2023/01/12 00:31:18;;;;;;;13.38;2.30;;;7.60;99.90;;;;;;5110535;28;20122;-83
2023/01/12 00:33:45;;;;;;;12.23;2.42;;;7.70;99.90;;;;;;5110288;28;20040;-83
2023/01/12 00:36:13;;;;;;;16.23;2.17;;;7.60;99.90;;;;;;5110601;28;20051;-83
2023/01/12 00:38:39;;;;;;;12.20;2.38;;;7.60;99.90;;;;;;5127192;28;20454;-83
2023/01/12 00:41:08;;;;;;;10.32;1.92;;;7.70;99.90;;;;;;5108944;28;20047;-83
2023/01/12 00:46:30;;;;;;;15.38;2.13;;;7.70;99.90;;;;;;5144213;28;20036;-82
2023/01/12 00:48:57;;;;;;;17.10;2.22;;;7.70;99.90;;;;;;5126911;28;20036;-83
2023/01/12 00:51:24;;;;;;;18.15;2.58;;;7.80;99.90;;;;;;5093710;28;20126;-83
2023/01/12 00:53:50;;;;;;;19.27;3.15;;;7.80;99.90;;;;;;5126754;28;20043;-83
2023/01/12 00:56:17;;;;;;;11.25;2.55;;;7.80;99.90;;;;;;5093121;28;20097;-82
2023/01/12 00:58:44;;;;;;;13.82;2.50;;;7.80;99.90;;;;;;5109290;28;20083;-81
2023/01/12 01:01:10;;;;;;;18.50;2.92;;;7.80;99.90;;;;;;5126692;28;20113;-82
2023/01/12 01:03:37;;;;;;;19.00;2.92;;;7.70;99.90;;;;;;5126641;28;20032;-83
2023/01/12 01:06:06;;;;;;;19.42;2.63;;;7.70;99.90;;;;;;5093126;28;20036;-82
2023/01/12 01:08:35;;;;;;;19.75;2.80;;;7.70;99.90;;;;;;5109644;28;20042;-82
2023/01/12 01:11:05;;;;;;;18.77;3.03;;;7.70;99.90;;;;;;5126157;28;20055;-82
2023/01/12 01:13:32;;;;;;;13.43;2.72;;;7.70;99.90;;;;;;5109529;28;20039;-83
2023/01/12 01:16:00;;;;;;;16.33;2.97;;;7.70;99.90;;;;;;5126032;28;20043;-83
2023/01/12 01:18:28;;;;;;;21.45;3.17;;;7.70;99.90;;;;;;5109573;28;20036;-83
2023/01/12 01:20:55;;;;;;;18.08;3.05;;;7.70;99.90;;;;;;5109190;28;20040;-83
2023/01/12 01:23:23;;;;;;;17.67;2.60;;;7.70;99.90;;;;;;5109353;28;20096;-82
2023/01/12 01:25:50;;;;;;;10.02;2.25;;;7.70;99.90;;;;;;5125717;28;20040;-82
2023/01/12 01:28:17;;;;;;;11.20;2.22;;;7.70;99.90;;;;;;5126502;28;20549;-82
2023/01/12 01:30:47;;;;;;;13.52;2.13;;;7.70;99.90;;;;;;5126065;28;20044;-82
2023/01/12 01:33:14;;;;;;;13.13;2.20;;;7.60;99.90;;;;;;5125965;28;20499;-82
2023/01/12 01:35:41;;;;;;;10.68;1.90;;;7.60;99.90;;;;;;5126089;28;20046;-82
2023/01/12 01:38:08;;;;;;;14.05;2.60;;;7.60;99.90;;;;;;5109250;28;20043;-83
2023/01/12 01:40:41;;;;;;;17.63;2.70;;;7.50;99.90;;;;;;5109099;28;20042;-83
2023/01/12 01:43:13;;;;;;;21.45;3.17;;;7.50;99.90;;;;;;5125649;28;20048;-83
2023/01/12 01:45:43;;;;;;;13.65;2.28;;;7.50;99.90;;;;;;5125795;28;20123;-83
2023/01/12 01:48:13;;;;;;;17.33;2.67;;;7.50;99.90;;;;;;5108860;28;20445;-82
2023/01/12 01:50:47;;;;;;;20.83;2.80;;;7.50;99.90;;;;;;5126001;28;20499;-81
2023/01/12 01:53:19;;;;;;;22.80;2.88;;;7.50;99.90;;;;;;5125359;28;20055;-82
2023/01/12 01:55:55;;;;;;;16.38;3.03;;;7.50;99.90;;;;;;5126323;28;20040;-83
2023/01/12 01:58:33;;;;;;;14.80;2.50;;;7.50;99.90;;;;;;5126156;28;20048;-82
2023/01/12 02:00:59;;;;;;;16.98;2.60;;;7.50;99.90;;;;;;5108834;28;20453;-82
2023/01/12 02:03:27;;;;;;;13.85;2.55;;;7.50;99.90;;;;;;5092209;28;20071;-82
2023/01/12 02:05:55;;;;;;;15.68;2.40;;;7.60;99.90;;;;;;5125712;28;20046;-82
2023/01/12 02:08:45;;;;;;;19.08;2.70;;;7.60;99.90;;;;;;5109028;28;20043;-82
2023/01/12 02:17:05;;;;;;;9.48;2.28;;;7.70;99.90;;;;;;5109955;28;20051;-82
2023/01/12 02:19:47;;;;;;;13.80;2.47;;;7.80;99.90;;;;;;5125605;28;20415;-82
2023/01/12 02:22:47;;;;;;;11.23;2.05;;;7.70;99.90;;;;;;5125314;28;20241;-82
2023/01/12 02:25:57;;;;;;;13.35;2.28;;;7.60;99.90;;;;;;5125483;28;20444;-83
2023/01/12 02:29:01;;;;;;;18.55;2.45;;;7.60;99.90;;;;;;5108158;28;20040;-83
2023/01/12 02:31:40;;;;;;;16.35;2.75;;;7.60;99.90;;;;;;5125652;28;20130;-82
2023/01/12 02:34:09;;;;;;;17.33;2.78;;;7.60;99.90;;;;;;5125466;28;20040;-82
2023/01/12 02:36:58;;;;;;;20.10;3.10;;;7.50;99.90;;;;;;5125575;28;20130;-83
2023/01/12 02:39:30;;;;;;;12.90;2.83;;;7.50;99.90;;;;;;5125358;28;20048;-82
2023/01/12 02:45:41;;;;;;;20.15;2.58;;;7.50;99.90;;;;;;5141894;28;20040;-82
2023/01/12 02:48:42;;;;;;;19.73;3.15;;;7.60;99.90;;;;;;5104638;28;20044;-82
2023/01/12 02:51:32;;;;;;;14.05;3.03;;;7.60;99.90;;;;;;5104508;28;20442;-82
2023/01/12 02:54:05;;;;;;;15.93;3.40;;;7.60;99.90;;;;;;5104817;28;20041;-82
2023/01/12 02:56:37;;;;;;;18.45;2.83;;;7.70;99.90;;;;;;5095086;28;20047;-83
2023/01/12 02:59:13;;;;;;;20.40;2.72;;;7.70;99.90;;;;;;5108279;28;20496;-82
2023/01/12 03:01:41;;;;;;;16.33;2.80;;;7.70;99.90;;;;;;5108376;28;20507;-82
2023/01/12 03:04:09;;;;;;;18.13;3.00;;;7.70;99.90;;;;;;5126425;28;20079;-82
2023/01/12 03:06:41;;;;;;;21.40;3.92;;;7.70;99.90;;;;;;5111866;28;20040;-83
2023/01/12 03:09:08;;;;;;;19.30;2.95;;;7.70;99.90;;;;;;5111994;28;20036;-82
2023/01/12 03:11:38;;;;;;;18.40;3.13;;;7.70;99.90;;;;;;5095245;28;20044;-82
2023/01/12 03:14:06;;;;;;;19.65;3.05;;;7.80;99.90;;;;;;5111493;28;20488;-81
2023/01/12 03:16:38;;;;;;;15.55;2.70;;;7.70;99.90;;;;;;5111646;28;20519;-82
2023/01/12 03:19:10;;;;;;;17.83;3.20;;;7.80;99.90;;;;;;5128554;28;20044;-82
2023/01/12 03:21:56;;;;;;;11.75;2.50;;;7.70;99.90;;;;;;5128531;28;20101;-83
2023/01/12 03:24:39;;;;;;;16.83;3.28;;;7.70;99.90;;;;;;5111256;28;20515;-82
2023/01/12 03:27:19;;;;;;;18.27;2.78;;;7.70;99.90;;;;;;5110854;28;20537;-82
2023/01/12 03:29:53;;;;;;;14.85;2.65;;;7.70;99.90;;;;;;5111723;28;20036;-82
2023/01/12 03:32:21;;;;;;;19.83;3.30;;;7.70;99.90;;;;;;5111143;28;20485;-83
2023/01/12 03:34:48;;;;;;;20.23;3.53;;;7.70;99.90;;;;;;5111377;28;20058;-82
2023/01/12 03:37:31;;;;;;;18.58;3.70;;;7.80;99.90;;;;;;5094190;28;20407;-83
2023/01/12 03:40:07;;;;;;;14.43;2.83;;;7.80;99.90;;;;;;5107760;28;20037;-83
2023/01/12 03:42:37;;;;;;;18.80;3.10;;;7.80;99.90;;;;;;5107582;28;20149;-83
2023/01/12 03:45:44;;;;;;;20.30;3.25;;;7.80;99.90;;;;;;5107746;28;20045;-83
2023/01/12 03:48:24;;;;;;;16.40;3.05;;;7.80;99.90;;;;;;5112681;28;20044;-83
2023/01/12 03:51:02;;;;;;;15.32;2.95;;;7.70;99.90;;;;;;5111401;28;20078;-83
2023/01/12 03:53:31;;;;;;;19.23;3.38;;;7.80;99.90;;;;;;5110962;28;20130;-83
2023/01/12 03:56:03;;;;;;;13.50;3.35;;;7.80;99.90;;;;;;5111552;28;20086;-83
2023/01/12 03:58:31;;;;;;;14.02;3.55;;;7.70;99.90;;;;;;5127572;28;20036;-82
2023/01/12 04:00:58;;;;;;;19.10;4.45;;;7.70;99.90;;;;;;5127461;28;20040;-83
2023/01/12 04:03:25;;;;;;;17.88;3.38;;;7.80;99.90;;;;;;5127484;28;20694;-83
2023/01/12 04:05:52;;;;;;;15.35;3.63;;;7.80;99.90;;;;;;5127805;28;20559;-83
2023/01/12 04:08:18;;;;;;;11.73;2.63;;;7.80;99.90;;;;;;5127546;28;20511;-83
2023/01/12 04:10:45;;;;;;;12.60;3.10;;;7.80;99.90;;;;;;5127662;28;20050;-83
2023/01/12 04:13:12;;;;;;;13.70;3.40;;;7.90;99.90;;;;;;5127250;28;20407;-82
2023/01/12 04:15:41;;;;;;;19.13;3.47;;;7.90;99.90;;;;;;5110461;28;20040;-83
2023/01/12 04:18:11;;;;;;;10.75;2.80;;;7.90;99.90;;;;;;5110573;28;20040;-83
2023/01/12 04:20:38;;;;;;;15.32;3.47;;;7.90;99.90;;;;;;5110374;28;20174;-83
2023/01/12 04:23:06;;;;;;;13.98;2.88;;;7.90;99.90;;;;;;5127379;28;20508;-83
2023/01/12 04:25:33;;;;;;;12.00;2.60;;;7.90;99.90;;;;;;5127161;28;20051;-82
2023/01/12 04:28:03;;;;;;;9.73;2.42;;;8.00;99.90;;;;;;5127403;28;20039;-83
2023/01/12 04:30:32;;;;;;;12.95;3.10;;;7.90;99.90;;;;;;5110006;28;20043;-83
2023/01/12 04:32:59;;;;;;;14.88;2.15;;;7.90;99.90;;;;;;5127209;28;20036;-83
2023/01/12 04:35:26;;;;;;;12.27;2.65;;;7.90;99.90;;;;;;5126848;28;20401;-82
2023/01/12 04:37:53;;;;;;;11.20;2.60;;;8.00;99.90;;;;;;5110085;28;20105;-82
2023/01/12 04:40:20;;;;;;;14.18;3.08;;;7.90;99.90;;;;;;5126924;28;20048;-83
2023/01/12 04:45:38;;;;;;;14.38;2.88;;;7.90;99.90;;;;;;5143848;28;20047;-82
2023/01/12 04:48:09;;;;;;;9.10;2.92;;;7.90;99.90;;;;;;5110558;28;20034;-83
2023/01/12 04:50:37;;;;;;;12.73;3.30;;;7.90;99.90;;;;;;5109389;28;20067;-82
2023/01/12 04:53:06;;;;;;;12.82;3.30;;;7.90;99.90;;;;;;5126929;28;20135;-83
2023/01/12 04:55:35;;;;;;;9.52;3.00;;;7.90;99.90;;;;;;5109743;28;20047;-83
2023/01/12 04:58:02;;;;;;;11.10;3.17;;;7.90;99.90;;;;;;5110091;28;20093;-83
2023/01/12 05:00:29;;;;;;;9.85;2.65;;;7.90;99.90;;;;;;5126086;28;20037;-82
2023/01/12 05:02:59;;;;;;;11.40;2.42;;;7.90;99.90;;;;;;5093468;28;20094;-82
2023/01/12 05:05:31;;;;;;;8.55;2.47;;;7.90;99.90;;;;;;5109498;28;20146;-82
2023/01/12 05:10:49;;;;;;;9.18;2.08;;;7.90;99.90;;;;;;5126603;28;20052;-82
2023/01/12 05:13:16;;;;;;;4.70;1.52;;;8.00;99.90;;;;;;5092870;28;20105;-82
2023/01/12 05:15:42;;;;;;;4.95;2.15;;;8.00;99.90;;;;;;5126559;28;20040;-82
2023/01/12 05:18:09;;;;;;;9.48;1.85;;;8.00;99.90;;;;;;5109726;28;20039;-83
2023/01/12 05:20:36;;;;;;;9.45;2.25;;;8.00;99.90;;;;;;5109179;28;20066;-83
2023/01/12 05:23:03;;;;;;;8.15;1.83;;;8.00;99.90;;;;;;5126011;28;20036;-83
2023/01/12 05:25:31;;;;;;;7.05;2.08;;;8.00;99.90;;;;;;5126069;28;20114;-83
2023/01/12 05:27:58;;;;;;;7.05;1.95;;;8.00;99.90;;;;;;5125831;28;20081;-83
2023/01/12 05:30:26;;;;;;;7.53;2.10;;;7.90;99.90;;;;;;5126159;28;20102;-83
2023/01/12 05:32:53;;;;;;;7.30;1.85;;;8.00;99.90;;;;;;5109585;28;20071;-83
2023/01/12 05:35:20;;;;;;;8.20;1.67;;;7.90;99.90;;;;;;5109353;28;20078;-83
2023/01/12 05:37:48;;;;;;;4.97;1.63;;;7.90;99.90;;;;;;5126560;28;20039;-83
2023/01/12 05:40:15;;;;;;;6.97;1.60;;;7.90;99.90;;;;;;5109079;28;20096;-82
2023/01/12 05:45:26;;;;;;;7.78;1.45;;;7.90;99.90;;;;;;5111334;28;20076;-82
2023/01/12 05:47:58;;;;;;;2.92;1.27;;;7.80;99.90;;;;;;5126092;28;20494;-83
2023/01/12 05:50:25;;;;;;;4.30;1.13;;;7.90;99.90;;;;;;5108846;28;20132;-83
2023/01/12 05:52:52;;;;;;;5.97;1.33;;;7.80;99.90;;;;;;5108886;28;20040;-83
2023/01/12 05:55:19;;;;;;;3.30;1.25;;;7.80;99.90;;;;;;5126319;28;20047;-83
2023/01/12 05:57:45;;;;;;;5.30;1.58;;;7.80;99.90;;;;;;5108728;28;20036;-83
2023/01/12 06:00:13;;;;;;;4.93;1.20;;;7.80;99.90;;;;;;5109043;28;20041;-83
2023/01/12 06:02:39;;;;;;;4.65;1.30;;;7.80;99.90;;;;;;5091989;28;20055;-83
2023/01/12 06:05:08;;;;;;;4.15;1.08;;;7.80;99.90;;;;;;5092480;28;20032;-83
2023/01/12 06:07:35;;;;;;;5.55;1.13;;;7.80;99.90;;;;;;5109020;28;20407;-83
2023/01/12 06:10:04;;;;;;;3.97;1.10;;;7.80;99.90;;;;;;5108918;28;20412;-83
2023/01/12 06:15:16;;;;;;;2.70;0.93;;;7.80;99.90;;;;;;5112343;28;20044;-83
2023/01/12 06:17:43;;;;;;;5.40;1.25;;;7.80;99.90;;;;;;5110185;28;20328;-83
2023/01/12 06:20:13;;;;;;;8.02;1.20;;;7.80;99.90;;;;;;5125533;28;20101;-83
2023/01/12 06:22:40;;;;;;;3.42;1.27;;;7.70;99.90;;;;;;5108507;28;20123;-83
2023/01/12 06:25:07;;;;;;;6.30;1.42;;;7.80;99.90;;;;;;5092246;28;20115;-83
2023/01/12 06:27:34;;;;;;;4.30;1.00;;;7.80;99.90;;;;;;5108136;28;20036;-83
2023/01/12 06:30:01;;;;;;;4.97;1.05;;;7.80;99.90;;;;;;5125673;28;20044;-83
2023/01/12 06:32:28;;;;;;;5.50;1.10;;;7.80;99.90;;;;;;5125646;28;20036;-82
2023/01/12 06:34:57;;;;;;;6.40;1.40;;;7.80;99.90;;;;;;5125835;28;20032;-82
2023/01/12 06:37:24;;;;;;;5.45;1.23;;;7.90;99.90;;;;;;5125961;28;20044;-83
2023/01/12 06:39:51;;;;;;;1.80;1.00;;;7.90;99.90;;;;;;5111045;28;20032;-82
2023/01/12 06:42:30;;;;;;;3.85;1.23;;;7.90;99.90;;;;;;5129229;28;20036;-82
2023/01/12 06:45:04;;;;;;;5.03;1.00;;;7.90;99.90;;;;;;5105373;28;20067;-83
2023/01/12 06:47:30;;;;;;;2.83;0.88;;;7.90;99.90;;;;;;5120545;28;20051;-81
2023/01/12 06:49:57;;;;;;;5.47;1.30;;;8.00;99.90;;;;;;5129545;28;20032;-83
2023/01/12 06:52:25;;;;;;;4.68;1.10;;;8.00;99.90;;;;;;5097950;28;20033;-82
2023/01/12 06:54:53;;;;;;;2.72;1.00;;;8.00;99.90;;;;;;5094535;28;20044;-82
2023/01/12 06:57:19;;;;;;;3.97;1.10;;;8.00;99.90;;;;;;5095537;28;20108;-83
2023/01/12 06:59:46;;;;;;;1.83;0.88;;;8.00;99.90;;;;;;5112501;28;20385;-82
2023/01/12 07:02:14;;;;;;;4.68;1.20;;;8.00;99.90;;;;;;5095784;28;20067;-82
2023/01/12 07:04:41;;;;;;;4.57;0.90;;;8.10;99.90;;;;;;5112019;28;20080;-82
2023/01/12 07:07:09;;;;;;;1.85;0.70;;;8.00;99.90;;;;;;5091833;28;20037;-83
2023/01/12 07:09:36;;;;;;;2.30;0.90;;;8.10;99.90;;;;;;5108404;28;20071;-83
2023/01/12 07:12:03;;;;;;;2.35;0.70;;;8.10;99.90;;;;;;5108868;28;20039;-83
2023/01/12 07:14:30;;;;;;;3.15;0.65;;;8.10;99.90;;;;;;5075510;28;20119;-82
2023/01/12 07:16:57;;;;;;;2.08;0.55;;;8.20;99.90;;;;;;5088270;28;20036;-82
2023/01/12 07:19:24;;;;;;;1.90;0.60;;;8.30;99.90;;;;;;5111805;28;20369;-83
2023/01/12 07:21:50;;;;;;;1.73;0.60;;;8.30;99.90;;;;;;5094584;28;20064;-83
2023/01/12 07:24:17;;;;;;;3.47;0.80;;;8.30;99.90;;;;;;5128527;28;20500;-82
2023/01/12 07:26:48;;;;;;;1.20;0.50;;;8.30;99.90;;;;;;5128180;28;20032;-83
2023/01/12 07:29:15;;;;;;;2.28;0.40;;;8.40;99.90;;;;;;5128445;28;20071;-82
2023/01/12 07:31:44;;;;;;;0.63;0.35;;;8.40;99.90;;;;;;5111445;28;20043;-82
2023/01/12 07:34:11;;;;;;;0.93;0.50;;;8.50;99.90;;;;;;5111408;28;20043;-82
2023/01/12 07:36:38;;;;;;;0.40;0.40;;;8.50;99.90;;;;;;5111207;28;20043;-82
2023/01/12 07:39:05;;;;;;;0.63;0.47;;;8.60;99.90;;;;;;5128380;28;20385;-83
2023/01/12 07:44:16;;;;;;;2.63;0.70;;;8.60;99.90;;;;;;5118552;28;20051;-82
2023/01/12 07:46:43;;;;;;;0.68;0.38;;;8.60;99.90;;;;;;5117403;28;20041;-83
2023/01/12 07:49:10;;;;;;;0.43;0.40;;;8.60;99.90;;;;;;5100256;28;20040;-82
2023/01/12 07:51:36;;;;;;;1.10;0.40;;;8.60;99.90;;;;;;5097551;28;20050;-83
2023/01/12 07:54:03;;;;;;;1.25;0.65;;;8.70;99.90;;;;;;5110566;28;20036;-83
2023/01/12 07:56:30;;;;;;;2.38;0.50;;;8.70;99.90;;;;;;5106434;28;20413;-82
2023/01/12 07:58:56;;;;;;;1.83;0.47;;;8.70;99.90;;;;;;5096929;28;20052;-82
2023/01/12 08:01:31;;;;;;;0.93;0.60;;;8.70;99.90;;;;;;5103791;28;20115;-82
2023/01/12 08:03:58;;;;;;;0.75;0.50;;;8.70;99.90;;;;;;5095135;28;20447;-82
2023/01/12 08:06:24;;;;;;;0.85;0.50;;;8.80;99.90;;;;;;5084987;28;20027;-81
2023/01/12 08:08:53;;;;;;;1.10;0.60;;;8.80;99.90;;;;;;5117490;28;20119;-83
2023/01/12 08:11:21;;;;;;;0.70;0.60;;;8.80;99.90;;;;;;5114886;28;20041;-82
2023/01/12 08:13:54;;;;;;;1.38;0.70;;;8.80;99.90;;;;;;5108345;28;20040;-82
2023/01/12 08:16:32;;;;;;;0.88;0.60;;;8.80;99.90;;;;;;5125988;28;20117;-82
2023/01/12 08:19:10;;;;;;;1.65;0.80;;;8.80;99.90;;;;;;5116250;28;20067;-83
2023/01/12 08:21:44;;;;;;;1.88;0.95;;;8.90;99.90;;;;;;5100497;28;20044;-83
2023/01/12 08:24:19;;;;;;;0.90;0.50;;;8.90;99.90;;;;;;5144044;28;20136;-82
2023/01/12 08:26:49;;;;;;;1.60;0.70;;;8.90;99.90;;;;;;5126637;28;20047;-82
2023/01/12 08:29:43;;;;;;;0.80;0.50;;;8.90;99.90;;;;;;5103931;28;20036;-82
2023/01/12 08:32:12;;;;;;;1.98;0.90;;;8.90;99.90;;;;;;5102929;28;20044;-82
2023/01/12 08:34:42;;;;;;;2.45;0.90;;;9.00;99.90;;;;;;5112560;28;20041;-82
2023/01/12 08:37:13;;;;;;;2.50;0.98;;;9.00;99.90;;;;;;5135056;28;20454;-82
2023/01/12 08:39:39;;;;;;;5.88;1.02;;;9.00;99.90;;;;;;5111532;28;20477;-82
2023/01/12 08:42:06;;;;;;;8.70;1.60;;;9.10;99.90;;;;;;5089480;28;20040;-81
2023/01/12 08:44:35;;;;;;;6.72;1.40;;;9.10;99.90;;;;;;5089621;28;20413;-82
2023/01/12 08:47:04;;;;;;;5.30;1.40;;;9.10;99.90;;;;;;5105912;28;20044;-82
2023/01/12 08:49:32;;;;;;;6.13;1.90;;;9.20;99.90;;;;;;5113660;28;20508;-82
2023/01/12 08:51:59;;;;;;;9.23;1.30;;;9.20;99.90;;;;;;5123407;28;20053;-82
2023/01/12 08:54:26;;;;;;;15.38;1.58;;;9.30;99.90;;;;;;5100847;28;20051;-82
2023/01/12 08:56:53;;;;;;;9.18;1.10;;;9.30;99.90;;;;;;5099342;28;20040;-81
2023/01/12 08:59:20;;;;;;;17.77;1.95;;;9.40;99.90;;;;;;5107455;28;20104;-82
2023/01/12 09:01:47;;;;;;;13.77;2.10;;;9.40;99.90;;;;;;5102298;28;20075;-81
2023/01/12 09:04:14;;;;;;;10.80;1.40;;;9.50;99.90;;;;;;5120564;28;20047;-82
2023/01/12 09:06:43;;;;;;;7.22;1.50;;;9.60;99.90;;;;;;5092486;28;20047;-81
2023/01/12 09:09:18;;;;;;;8.80;1.52;;;9.70;99.90;;;;;;5106097;28;20169;-81
2023/01/12 09:11:46;;;;;;;;;;;9.80;99.90;;;;;;5123420;28;20126;-82
2023/01/12 09:14:13;;;;;;;17.13;1.98;;;9.90;99.90;;;;;;5126014;28;19920;-81
2023/01/12 09:16:41;;;;;;;13.57;2.00;;;9.90;99.90;;;;;;5126451;28;20449;-81
2023/01/12 09:19:09;;;;;;;11.85;1.67;;;10.00;99.90;;;;;;5126332;28;20039;-81
2023/01/12 09:21:37;;;;;;;9.10;1.75;;;10.10;99.90;;;;;;5108896;28;20040;-81
2023/01/12 09:24:05;;;;;;;8.20;1.50;;;10.00;99.90;;;;;;5142792;28;20032;-81
2023/01/12 09:26:36;;;;;;;6.45;1.38;;;10.00;99.90;;;;;;5092835;28;20131;-81
2023/01/12 09:29:03;;;;;;;9.32;1.73;;;10.10;99.90;;;;;;5109367;28;20048;-81
2023/01/12 09:31:31;;;;;;;8.85;1.45;;;10.10;99.90;;;;;;5109244;28;20047;-80
2023/01/12 09:33:58;;;;;;;17.73;1.80;;;10.10;99.90;;;;;;5108980;28;20044;-81
2023/01/12 09:36:31;;;;;;;7.10;1.83;;;10.10;99.90;;;;;;5109254;28;20597;-81
2023/01/12 09:39:00;;;;;;;12.93;1.60;;;10.20;99.90;;;;;;5109107;28;20122;-81
2023/01/12 09:47:39;;;;;;;6.47;1.52;;;10.20;99.90;;;;;;5143111;28;20044;-82
2023/01/12 09:50:10;;;;;;;10.75;1.60;;;10.30;99.90;;;;;;5100672;28;20037;-81
2023/01/12 09:53:03;;;;;;;13.25;2.03;;;10.30;99.90;;;;;;5090322;28;20043;-81
2023/01/12 09:55:54;;;;;;;10.90;2.30;;;10.30;99.90;;;;;;5109466;28;20035;-81
2023/01/12 09:58:20;;;;;;;10.77;1.77;;;10.30;99.90;;;;;;5109320;28;20495;-82
2023/01/12 10:00:55;;;;;;;7.97;1.55;;;10.30;99.90;;;;;;5109435;28;20044;-81
2023/01/12 10:03:28;;;;;;;11.65;2.17;;;10.40;99.90;;;;;;5109187;28;20036;-81
2023/01/12 10:05:58;;;;;;;9.30;1.63;;;10.40;99.90;;;;;;5108636;28;20043;-81
2023/01/12 10:08:32;;;;;;;14.00;2.17;;;10.40;99.90;;;;;;5109181;28;20036;-81
2023/01/12 10:11:14;;;;;;;14.05;1.73;;;10.50;99.90;;;;;;5125394;28;20043;-81
2023/01/12 10:13:41;;;;;;;13.40;1.75;;;10.50;99.90;;;;;;5128300;28;20097;-81
2023/01/12 10:16:20;;;;;;;11.13;1.60;;;10.60;99.90;;;;;;5112082;28;20044;-80
2023/01/12 10:18:49;;;;;;;9.65;2.00;;;10.60;99.90;;;;;;5109944;28;20488;-81
2023/01/12 10:21:16;;;;;;;9.70;1.77;;;10.60;99.90;;;;;;5079402;28;20489;-81
2023/01/12 10:23:43;;;;;;;10.73;2.03;;;10.60;99.90;;;;;;5103231;28;20098;-82
2023/01/12 10:26:25;;;;;;;8.55;1.58;;;10.60;99.90;;;;;;5129472;28;20123;-82
2023/01/12 10:28:54;;;;;;;13.15;2.00;;;10.60;99.90;;;;;;5099798;28;20032;-82
2023/01/12 10:31:24;;;;;;;8.63;1.55;;;10.60;99.90;;;;;;5092121;28;20048;-80
2023/01/12 10:34:00;;;;;;;7.45;1.58;;;10.60;99.90;;;;;;5108826;28;20115;-82
2023/01/12 10:36:29;;;;;;;10.85;1.65;;;10.70;99.90;;;;;;5108009;28;20412;-82
2023/01/12 10:38:57;;;;;;;9.85;1.95;;;10.70;99.90;;;;;;5095959;28;20062;-82
2023/01/12 10:41:31;;;;;;;12.52;1.80;;;10.80;99.90;;;;;;5129259;28;20079;-81
2023/01/12 10:43:57;;;;;;;15.23;2.17;;;10.80;99.90;;;;;;5128785;28;20048;-81
2023/01/12 10:46:26;;;;;;;10.20;1.80;;;10.80;99.90;;;;;;5112621;28;20093;-81
2023/01/12 10:49:13;;;;;;;7.43;1.83;;;10.90;99.90;;;;;;5095868;28;20035;-81
2023/01/12 10:52:08;;;;;;;11.23;1.80;;;10.90;99.90;;;;;;5107312;28;20071;-82
2023/01/12 10:54:40;;;;;;;13.07;1.88;;;10.90;99.90;;;;;;5116722;28;20071;-82
2023/01/12 10:57:22;;;;;;;6.32;1.65;;;11.00;99.90;;;;;;5112048;28;20035;-81
2023/01/12 11:00:01;;;;;;;11.80;2.10;;;11.00;99.90;;;;;;5112043;28;20071;-82
2023/01/12 11:02:42;;;;;;;10.90;1.88;;;10.90;99.90;;;;;;5112571;28;20040;-81
2023/01/12 11:05:29;;;;;;;8.65;1.80;;;10.90;99.90;;;;;;5094743;28;20097;-82
2023/01/12 11:07:56;;;;;;;12.20;2.08;;;10.90;99.90;;;;;;5129063;28;20127;-82
2023/01/12 11:10:27;;;;;;;7.38;1.40;;;10.80;99.90;;;;;;5111348;28;20055;-82
2023/01/12 11:13:02;;;;;;;7.75;1.65;;;10.90;99.90;;;;;;5111625;28;20040;-82
2023/01/12 11:15:34;;;;;;;13.93;1.38;;;10.80;99.90;;;;;;5110180;28;20043;-82
2023/01/12 11:18:25;;;;;;;9.93;1.30;;;10.90;99.90;;;;;;5112620;28;20043;-82
2023/01/12 11:21:09;;;;;;;7.65;1.55;;;10.90;99.90;;;;;;5107925;28;20056;-82
2023/01/12 11:23:55;;;;;;;5.00;1.20;;;10.90;99.90;;;;;;5091642;28;20048;-82
2023/01/12 11:26:31;;;;;;;10.05;1.60;;;11.00;99.90;;;;;;5101957;28;20086;-82
2023/01/12 11:29:10;;;;;;;8.82;1.25;;;11.00;99.90;;;;;;5091770;28;20102;-82
2023/01/12 11:31:41;;;;;;;7.22;1.75;;;11.10;99.90;;;;;;5109224;28;20136;-82
2023/01/12 11:34:24;;;;;;;6.25;1.30;;;11.10;99.90;;;;;;5111128;28;20043;-81
2023/01/12 11:36:54;;;;;;;9.95;1.85;;;11.50;99.90;;;;;;5121617;28;20123;-82
2023/01/12 11:39:26;;;;;;;14.15;1.73;;;11.30;99.90;;;;;;5122087;28;20412;-82
2023/01/12 11:45:00;;;;;;;6.85;1.02;;;11.30;99.90;;;;;;5118336;28;20533;-82
2023/01/12 11:47:48;;;;;;;9.02;1.80;;;11.30;99.90;;;;;;5119898;28;20032;-81
2023/01/12 11:50:29;;;;;;;9.15;1.80;;;11.30;99.90;;;;;;5109385;28;20509;-81
2023/01/12 11:52:57;;;;;;;8.65;1.38;;;11.30;99.90;;;;;;5123427;28;20062;-81
2023/01/12 11:56:14;;;;;;;9.68;1.70;;;11.30;99.90;;;;;;5127169;28;20043;-81
2023/01/12 11:59:01;;;;;;;8.13;1.30;;;11.30;99.90;;;;;;5109775;28;20131;-81
2023/01/12 12:01:58;;;;;;;13.07;1.80;;;11.40;99.90;;;;;;5107194;28;20036;-81
2023/01/12 12:04:37;;;;;;;5.95;1.52;;;11.40;99.90;;;;;;5126464;28;20040;-82
2023/01/12 12:07:17;;;;;;;7.70;1.92;;;11.40;99.90;;;;;;5110952;28;20039;-82
2023/01/12 12:10:21;;;;;;;6.15;1.20;;;11.40;99.90;;;;;;5110931;28;20442;-81
2023/01/12 12:13:00;;;;;;;9.88;1.58;;;11.40;99.90;;;;;;5090785;28;20041;-81
2023/01/12 12:15:34;;;;;;;7.53;1.30;;;11.40;99.90;;;;;;5107140;28;20085;-81
2023/01/12 12:18:12;;;;;;;11.57;2.22;;;11.40;99.90;;;;;;5110833;28;20036;-82
2023/01/12 12:20:43;;;;;;;12.77;2.40;;;11.40;99.90;;;;;;5110397;28;20385;-82
2023/01/12 12:23:21;;;;;;;9.18;1.42;;;11.40;99.90;;;;;;5110325;28;20048;-81
2023/01/12 12:25:57;;;;;;;10.55;1.40;;;11.40;99.90;;;;;;5110575;28;20097;-82
2023/01/12 12:29:07;;;;;;;6.55;1.40;;;11.50;99.90;;;;;;5093970;28;20033;-82
2023/01/12 12:32:04;;;;;;;12.38;1.80;;;11.40;99.90;;;;;;5089927;28;20036;-81
2023/01/12 12:34:56;;;;;;;8.80;1.52;;;11.40;99.90;;;;;;5089986;28;20135;-81
2023/01/12 12:37:25;;;;;;;7.63;1.45;;;11.40;99.90;;;;;;5089790;28;20131;-81
2023/01/12 12:40:09;;;;;;;8.93;1.40;;;11.40;99.90;;;;;;5127617;28;20071;-81
2023/01/12 12:46:03;;;;;;;11.38;1.77;;;11.30;99.90;;;;;;5144188;28;20075;-81
2023/01/12 12:48:49;;;;;;;9.55;1.48;;;11.40;99.90;;;;;;5126773;28;20825;-81
2023/01/12 12:51:16;;;;;;;6.85;1.33;;;11.40;99.90;;;;;;5110333;28;20093;-81
2023/01/12 12:53:48;;;;;;;8.75;1.77;;;11.40;99.90;;;;;;5093319;28;20381;-82
2023/01/12 12:56:17;;;;;;;9.88;1.30;;;11.40;99.90;;;;;;5109761;28;20484;-81
2023/01/12 12:58:52;;;;;;;5.88;1.40;;;11.30;99.90;;;;;;5126805;28;20076;-81
2023/01/12 13:01:18;;;;;;;7.13;1.42;;;11.40;99.90;;;;;;5126534;28;20109;-81
2023/01/12 13:03:47;;;;;;;9.77;1.55;;;11.40;99.90;;;;;;5127096;28;20036;-81
2023/01/12 13:06:29;;;;;;;8.55;1.50;;;11.30;99.90;;;;;;5109173;28;20039;-80
2023/01/12 13:08:58;;;;;;;9.18;1.58;;;11.30;99.90;;;;;;5126700;28;20040;-81
2023/01/12 13:11:57;;;;;;;8.82;1.70;;;11.30;99.90;;;;;;5126238;28;20446;-81
2023/01/12 13:14:34;;;;;;;5.57;1.33;;;11.30;99.90;;;;;;5126279;28;20048;-82
2023/01/12 13:17:02;;;;;;;6.43;1.25;;;11.30;99.90;;;;;;5109934;28;20050;-81
2023/01/12 13:19:41;;;;;;;15.13;1.50;;;11.30;99.90;;;;;;5109334;28;20492;-81
2023/01/12 13:22:26;;;;;;;8.63;2.20;;;11.20;99.90;;;;;;5109448;28;20127;-82
2023/01/12 13:24:55;;;;;;;4.90;1.10;;;11.20;99.90;;;;;;5126143;28;20032;-81
2023/01/12 13:27:46;;;;;;;7.97;1.48;;;11.20;99.90;;;;;;5103753;28;20040;-81
2023/01/12 13:30:21;;;;;;;8.90;1.88;;;11.20;99.90;;;;;;5106854;28;20041;-82
2023/01/12 13:32:59;;;;;;;5.78;1.45;;;11.20;99.90;;;;;;5106005;28;20037;-82
2023/01/12 13:35:31;;;;;;;10.55;1.58;;;11.20;99.90;;;;;;5107126;28;20043;-81
2023/01/12 13:38:32;;;;;;;9.38;1.58;;;11.10;99.90;;;;;;5109469;28;20072;-82
2023/01/12 13:44:18;;;;;;;6.28;1.42;;;11.10;99.90;;;;;;5106842;28;20043;-82
2023/01/12 13:46:47;;;;;;;7.50;1.70;;;11.10;99.90;;;;;;5116213;28;20093;-82
2023/01/12 13:49:33;;;;;;;8.25;1.70;;;11.00;99.90;;;;;;5124017;28;20074;-82
2023/01/12 13:52:08;;;;;;;16.30;2.33;;;11.00;99.90;;;;;;5125937;28;20051;-82
2023/01/12 13:54:46;;;;;;;9.05;2.13;;;11.10;99.90;;;;;;5109158;28;20043;-82
2023/01/12 13:57:24;;;;;;;8.00;1.73;;;11.00;99.90;;;;;;5109113;28;20140;-82